createdAt,value
2019-03-16T00:02:34.070Z,5.53
2019-03-16T00:05:04.582Z,5.90
2019-03-16T00:07:35.111Z,6.43
2019-03-16T00:10:07.372Z,6.13
2019-03-16T00:12:41.914Z,6.53
2019-03-16T00:15:13.003Z,5.83
2019-03-16T00:17:43.593Z,6.33
2019-03-16T00:20:14.982Z,6.57
2019-03-16T00:22:45.860Z,6.20
2019-03-16T00:25:16.233Z,6.40
2019-03-16T00:27:47.141Z,6.80
2019-03-16T00:30:25.190Z,7.30
2019-03-16T00:32:55.616Z,8.30
2019-03-16T00:35:25.994Z,7.67
2019-03-16T00:37:56.623Z,8.10
2019-03-16T00:40:26.959Z,7.70
2019-03-16T00:42:58.440Z,8.40
2019-03-16T00:45:32.120Z,7.60
2019-03-16T00:48:05.592Z,7.63
2019-03-16T00:50:36.105Z,9.23
2019-03-16T00:53:06.453Z,8.97
2019-03-16T00:55:38.970Z,9.50
2019-03-16T00:58:09.376Z,9.10
2019-03-16T01:00:40.215Z,9.50
2019-03-16T01:03:10.560Z,9.53
2019-03-16T01:05:41.089Z,9.70
2019-03-16T01:08:11.622Z,10.80
2019-03-16T01:10:42.243Z,10.17
2019-03-16T01:13:12.628Z,10.07
2019-03-16T01:15:44.289Z,11.00
2019-03-16T01:18:14.739Z,10.50
2019-03-16T01:20:45.313Z,10.27
2019-03-16T01:23:17.599Z,9.70
2019-03-16T01:25:48.224Z,8.67
2019-03-16T01:28:18.928Z,8.97
2019-03-16T01:30:49.447Z,8.70
2019-03-16T01:33:19.888Z,8.43
2019-03-16T01:35:50.386Z,9.00
2019-03-16T01:38:20.783Z,8.50
2019-03-16T01:40:51.158Z,7.77
2019-03-16T01:43:22.093Z,7.27
2019-03-16T01:45:52.705Z,6.80
2019-03-16T01:48:23.125Z,7.03
2019-03-16T01:50:53.487Z,6.10
2019-03-16T01:53:24.035Z,6.53
2019-03-16T01:55:54.781Z,5.70
2019-03-16T01:58:25.240Z,5.20
2019-03-16T02:00:55.885Z,5.97
2019-03-16T02:03:27.191Z,5.57
2019-03-16T02:05:57.664Z,5.60
2019-03-16T02:08:36.385Z,4.70
2019-03-16T02:11:06.790Z,4.60
2019-03-16T02:13:37.153Z,4.87
2019-03-16T02:16:11.370Z,4.60
2019-03-16T02:18:39.642Z,4.10
2019-03-16T02:21:10.621Z,4.60
2019-03-16T02:23:41.076Z,5.07
2019-03-16T02:26:15.793Z,5.00
2019-03-16T02:28:49.956Z,5.30
2019-03-16T02:31:20.471Z,4.57
2019-03-16T02:33:53.378Z,4.90
2019-03-16T02:36:32.745Z,4.60
2019-03-16T02:39:03.209Z,4.40
2019-03-16T02:41:36.948Z,4.57
2019-03-16T02:44:11.130Z,4.67
2019-03-16T02:46:39.923Z,3.70
2019-03-16T02:49:10.427Z,3.80
2019-03-16T02:51:41.024Z,3.43
2019-03-16T02:54:11.871Z,3.70
2019-03-16T02:56:53.409Z,3.80
2019-03-16T02:59:24.174Z,3.90
2019-03-16T03:01:55.219Z,2.90
2019-03-16T03:04:27.978Z,3.30
2019-03-16T03:07:14.763Z,3.30
2019-03-16T03:09:51.618Z,3.30
2019-03-16T03:12:29.045Z,3.17
2019-03-16T03:14:59.641Z,3.23
2019-03-16T03:17:35.273Z,3.23
2019-03-16T03:20:18.975Z,3.00
2019-03-16T03:22:59.062Z,3.20
2019-03-16T03:25:34.143Z,3.30
2019-03-16T03:28:11.228Z,2.70
2019-03-16T03:30:47.261Z,2.83
2019-03-16T03:33:58.598Z,2.60
2019-03-16T03:36:25.848Z,2.83
2019-03-16T03:39:08.361Z,2.63
2019-03-16T03:41:51.053Z,2.30
2019-03-16T03:47:30.751Z,2.40
2019-03-16T03:50:18.077Z,2.60
2019-03-16T03:52:55.288Z,2.40
2019-03-16T03:55:32.606Z,2.43
2019-03-16T03:58:18.748Z,2.50
2019-03-16T04:00:57.022Z,2.47
2019-03-16T04:03:31.907Z,2.30
2019-03-16T04:06:23.526Z,2.80
2019-03-16T04:09:00.059Z,2.40
2019-03-16T04:11:33.844Z,2.40
2019-03-16T04:14:16.646Z,2.70
2019-03-16T04:16:49.231Z,3.20
2019-03-16T04:19:26.476Z,3.20
2019-03-16T04:22:03.199Z,3.20
2019-03-16T04:24:40.405Z,3.73
2019-03-16T04:27:18.291Z,3.40
2019-03-16T04:29:57.950Z,3.70
2019-03-16T04:32:38.620Z,4.07
2019-03-16T04:35:13.290Z,3.60
2019-03-16T04:37:45.343Z,3.90
2019-03-16T04:40:24.296Z,4.17
2019-03-16T04:43:00.048Z,4.17
2019-03-16T04:45:36.140Z,3.90
2019-03-16T04:48:08.634Z,4.73
2019-03-16T04:50:44.173Z,4.60
2019-03-16T04:53:26.485Z,5.00
2019-03-16T04:56:00.934Z,4.53
2019-03-16T04:58:48.570Z,4.10
2019-03-16T05:01:34.670Z,4.20
2019-03-16T05:04:15.913Z,3.63
2019-03-16T05:06:52.868Z,3.50
2019-03-16T05:09:31.191Z,3.23
2019-03-16T05:12:09.756Z,3.50
2019-03-16T05:14:43.083Z,3.10
2019-03-16T05:17:13.774Z,3.27
2019-03-16T05:19:46.868Z,3.50
2019-03-16T05:22:17.958Z,3.50
2019-03-16T05:24:52.208Z,3.93
2019-03-16T05:27:33.064Z,3.97
2019-03-16T05:30:12.273Z,4.00
2019-03-16T05:32:47.211Z,4.27
2019-03-16T05:35:21.947Z,3.60
2019-03-16T05:37:53.017Z,3.60
2019-03-16T05:40:35.014Z,3.30
2019-03-16T05:43:10.773Z,3.20
2019-03-16T05:45:48.796Z,3.47
2019-03-16T05:48:59.317Z,3.27
2019-03-16T05:55:53.176Z,3.87
2019-03-16T05:58:52.982Z,3.03
2019-03-16T06:02:31.914Z,3.20
2019-03-16T06:04:32.478Z,3.40
2019-03-16T06:07:13.731Z,2.77
2019-03-16T06:09:56.018Z,2.90
2019-03-16T06:12:36.777Z,3.03
2019-03-16T06:15:54.751Z,3.07
2019-03-16T06:21:41.227Z,3.00
2019-03-16T06:24:56.586Z,3.50
2019-03-16T06:31:15.492Z,3.30
2019-03-16T06:34:17.489Z,3.40
2019-03-16T06:37:02.399Z,3.43
2019-03-16T06:39:48.734Z,3.80
2019-03-16T06:42:37.581Z,3.40
2019-03-16T06:45:14.102Z,3.60
2019-03-16T06:48:07.676Z,3.60
2019-03-16T06:51:20.424Z,3.80
2019-03-16T06:54:13.288Z,3.00
2019-03-16T06:57:04.308Z,3.60
2019-03-16T07:03:10.133Z,3.00
2019-03-16T07:09:28.299Z,3.10
2019-03-16T07:12:45.605Z,3.20
2019-03-16T07:15:37.835Z,2.83
2019-03-16T07:18:58.792Z,2.87
2019-03-16T07:22:04.995Z,3.20
2019-03-16T07:28:08.337Z,2.43
2019-03-16T07:31:00.172Z,3.00
2019-03-16T07:34:09.051Z,2.60
2019-03-16T07:37:21.622Z,2.40
2019-03-16T07:46:28.396Z,2.20
2019-03-16T07:52:38.938Z,2.40
2019-03-16T07:55:09.947Z,2.20
2019-03-16T07:57:58.396Z,2.03
2019-03-16T08:00:48.966Z,2.40
2019-03-16T08:03:27.922Z,2.20
2019-03-16T08:06:01.212Z,2.07
2019-03-16T08:08:34.613Z,2.00
2019-03-16T08:11:36.923Z,1.90
2019-03-16T08:14:12.517Z,1.90
2019-03-16T08:19:30.765Z,2.30
2019-03-16T08:22:18.172Z,2.10
2019-03-16T08:24:55.554Z,1.80
2019-03-16T08:27:57.138Z,2.10
2019-03-16T08:31:01.767Z,2.10
2019-03-16T08:37:18.070Z,2.17
2019-03-16T08:48:48.720Z,2.10
2019-03-16T08:51:45.788Z,2.37
2019-03-16T09:00:51.704Z,2.00
2019-03-16T09:03:54.544Z,2.10
2019-03-16T09:06:58.812Z,2.00
2019-03-16T09:18:36.095Z,1.90
2019-03-16T09:24:31.486Z,2.10
2019-03-16T09:27:30.720Z,2.27
2019-03-16T09:44:05.379Z,2.37
2019-03-16T09:49:55.254Z,2.37
2019-03-16T09:55:58.999Z,2.00
2019-03-16T09:59:05.739Z,2.30
2019-03-16T10:02:32.674Z,6.93
2019-03-16T10:05:48.260Z,2.13
2019-03-16T10:08:38.913Z,2.00
2019-03-16T10:14:32.167Z,1.90
2019-03-16T10:17:15.424Z,1.90
2019-03-16T10:19:52.211Z,2.00
2019-03-16T10:26:03.805Z,1.80
2019-03-16T10:40:56.848Z,1.83
2019-03-16T10:47:31.363Z,1.80
2019-03-16T10:50:32.631Z,1.70
2019-03-16T10:53:22.918Z,1.90
2019-03-16T11:22:06.932Z,1.80
2019-03-16T11:32:26.188Z,1.60
2019-03-16T11:54:45.678Z,1.60
2019-03-16T11:57:26.105Z,1.77
2019-03-16T12:00:05.538Z,1.67
2019-03-16T12:02:57.137Z,1.73
2019-03-16T12:05:44.964Z,1.73
2019-03-16T12:08:18.503Z,1.80
2019-03-16T12:10:57.720Z,1.80
2019-03-16T12:13:37.230Z,1.53
2019-03-16T12:16:09.253Z,1.57
2019-03-16T12:18:53.392Z,1.70
2019-03-16T12:21:38.521Z,1.60
2019-03-16T12:24:24.020Z,1.80
2019-03-16T12:26:57.043Z,1.90
2019-03-16T12:29:38.929Z,1.70
2019-03-16T12:32:16.906Z,1.80
2019-03-16T12:34:59.232Z,1.90
2019-03-16T12:37:38.251Z,1.97
2019-03-16T12:40:54.867Z,1.90
2019-03-16T12:43:57.979Z,2.40
2019-03-16T12:46:42.962Z,2.90
2019-03-16T12:56:53.965Z,2.30
2019-03-16T12:59:46.737Z,2.10
2019-03-16T13:02:07.839Z,1.87
2019-03-16T13:04:44.208Z,2.13
2019-03-16T13:07:15.064Z,1.90
2019-03-16T13:09:52.006Z,2.10
2019-03-16T13:12:50.411Z,2.00
2019-03-16T13:15:21.283Z,2.37
2019-03-16T13:17:56.316Z,2.20
2019-03-16T13:20:27.672Z,2.50
2019-03-16T13:22:58.563Z,2.30
2019-03-16T13:25:44.658Z,2.27
2019-03-16T13:28:15.493Z,2.13
2019-03-16T13:30:53.749Z,2.13
2019-03-16T13:33:41.525Z,2.20
2019-03-16T13:36:15.247Z,2.50
2019-03-16T13:38:46.151Z,2.00
2019-03-16T13:41:16.962Z,1.77
2019-03-16T13:43:51.078Z,1.97
2019-03-16T13:46:35.099Z,1.83
2019-03-16T13:49:05.920Z,2.27
2019-03-16T13:51:40.451Z,2.10
2019-03-16T13:54:15.699Z,1.93
2019-03-16T13:57:14.244Z,2.00
2019-03-16T13:59:50.489Z,2.33
2019-03-16T14:02:24.797Z,2.37
2019-03-16T14:05:00.581Z,2.13
2019-03-16T14:07:31.344Z,2.50
2019-03-16T14:10:02.442Z,2.40
2019-03-16T14:12:47.362Z,2.57
2019-03-16T14:15:39.484Z,2.40
2019-03-16T14:18:35.219Z,2.30
2019-03-16T14:21:07.044Z,2.37
2019-03-16T14:23:38.798Z,2.17
2019-03-16T14:26:42.328Z,2.27
2019-03-16T14:29:04.738Z,1.80
2019-03-16T14:31:44.165Z,1.87
2019-03-16T14:34:14.903Z,1.80
2019-03-16T14:36:52.095Z,1.90
2019-03-16T14:39:34.770Z,1.90
2019-03-16T14:42:22.623Z,2.07
2019-03-16T14:44:57.633Z,2.10
2019-03-16T14:47:48.929Z,2.20
2019-03-16T14:50:21.135Z,2.00
2019-03-16T14:52:53.400Z,2.10
2019-03-16T14:55:24.777Z,1.90
2019-03-16T15:01:01.633Z,1.80
2019-03-16T15:03:54.280Z,1.80
2019-03-16T15:06:27.147Z,2.10
2019-03-16T15:09:01.809Z,1.83
2019-03-16T15:11:33.902Z,1.90
2019-03-16T15:14:04.862Z,2.00
2019-03-16T15:16:35.323Z,2.07
2019-03-16T15:19:05.810Z,2.20
2019-03-16T15:21:39.225Z,2.20
2019-03-16T15:24:09.726Z,2.23
2019-03-16T15:26:54.486Z,2.30
2019-03-16T15:29:25.201Z,2.13
2019-03-16T15:31:56.592Z,2.30
2019-03-16T15:34:33.837Z,2.30
2019-03-16T15:37:05.411Z,2.20
2019-03-16T15:39:46.426Z,2.13
2019-03-16T15:42:16.894Z,2.50
2019-03-16T15:44:48.869Z,2.30
2019-03-16T15:47:39.951Z,2.10
2019-03-16T15:50:10.731Z,2.00
2019-03-16T15:52:41.548Z,2.07
2019-03-16T15:55:12.659Z,1.90
2019-03-16T15:57:45.506Z,2.10
2019-03-16T16:00:16.021Z,2.10
2019-03-16T16:02:46.702Z,2.30
2019-03-16T16:05:17.151Z,1.70
2019-03-16T16:07:47.510Z,1.97
2019-03-16T16:10:17.935Z,1.90
2019-03-16T16:13:06.328Z,2.00
2019-03-16T16:15:36.818Z,2.10
2019-03-16T16:18:07.308Z,2.10
2019-03-16T16:20:37.736Z,1.97
2019-03-16T16:23:08.246Z,2.00
2019-03-16T16:25:40.290Z,2.00
2019-03-16T16:28:11.271Z,2.20
2019-03-16T16:30:42.089Z,1.93
2019-03-16T16:33:13.337Z,2.33
2019-03-16T16:35:44.308Z,2.20
2019-03-16T16:38:18.300Z,2.40
2019-03-16T16:40:48.825Z,2.60
2019-03-16T16:43:19.168Z,2.33
2019-03-16T16:45:49.586Z,2.50
2019-03-16T16:48:19.967Z,3.43
2019-03-16T16:50:50.548Z,6.03
2019-03-16T16:53:21.896Z,4.57
2019-03-16T16:55:52.281Z,2.80
2019-03-16T16:58:22.860Z,2.73
2019-03-16T17:00:53.280Z,2.43
2019-03-16T17:03:23.736Z,2.67
2019-03-16T17:05:54.282Z,2.57
2019-03-16T17:08:25.166Z,2.37
2019-03-16T17:10:59.868Z,2.70
2019-03-16T17:13:30.248Z,2.33
2019-03-16T17:16:01.812Z,2.40
2019-03-16T17:18:33.672Z,2.60
2019-03-16T17:21:04.395Z,2.30
2019-03-16T17:23:35.309Z,2.40
2019-03-16T17:27:08.651Z,2.10
2019-03-16T17:29:39.640Z,2.40
2019-03-16T17:32:10.412Z,2.37
2019-03-16T17:34:41.368Z,2.50
2019-03-16T17:37:12.282Z,2.70
2019-03-16T17:39:44.776Z,2.60
2019-03-16T17:42:15.668Z,2.53
2019-03-16T17:44:46.014Z,2.60
2019-03-16T17:47:16.773Z,2.50
2019-03-16T17:49:47.254Z,2.60
2019-03-16T17:52:18.267Z,3.30
2019-03-16T17:54:51.790Z,3.37
2019-03-16T17:57:34.099Z,2.70
2019-03-16T18:00:09.172Z,2.50
2019-03-16T18:02:50.531Z,4.50
2019-03-16T18:05:11.839Z,3.10
2019-03-16T18:07:42.187Z,3.00
2019-03-16T18:10:13.416Z,3.00
2019-03-16T18:12:43.914Z,2.87
2019-03-16T18:15:15.160Z,2.30
2019-03-16T18:17:45.725Z,2.63
2019-03-16T18:20:18.070Z,3.10
2019-03-16T18:22:48.635Z,3.70
2019-03-16T18:25:19.078Z,5.43
2019-03-16T18:27:52.911Z,4.60
2019-03-16T18:30:23.907Z,4.67
2019-03-16T18:32:55.563Z,5.00
2019-03-16T18:35:26.017Z,5.00
2019-03-16T18:37:56.492Z,3.90
2019-03-16T18:40:26.961Z,3.40
2019-03-16T18:42:57.685Z,2.50
2019-03-16T18:45:28.237Z,2.33
2019-03-16T18:47:58.727Z,2.10
2019-03-16T18:50:31.988Z,2.50
2019-03-16T18:53:03.056Z,2.40
2019-03-16T18:55:33.988Z,6.70
2019-03-16T18:58:06.373Z,6.20
2019-03-16T19:00:37.060Z,5.83
2019-03-16T19:03:07.706Z,5.60
2019-03-16T19:05:42.687Z,4.43
2019-03-16T19:08:13.299Z,4.10
2019-03-16T19:10:44.890Z,3.70
2019-03-16T19:13:15.291Z,3.97
2019-03-16T19:15:45.673Z,6.50
2019-03-16T19:18:16.035Z,4.60
2019-03-16T19:20:46.684Z,4.10
2019-03-16T19:23:17.133Z,3.40
2019-03-16T19:25:47.682Z,4.03
2019-03-16T19:28:18.646Z,5.00
2019-03-16T19:30:51.253Z,5.40
2019-03-16T19:33:21.767Z,7.23
2019-03-16T19:35:52.177Z,9.80
2019-03-16T19:38:22.868Z,7.43
2019-03-16T19:40:53.399Z,6.30
2019-03-16T19:43:24.971Z,6.90
2019-03-16T19:45:55.340Z,6.60
2019-03-16T19:48:25.725Z,7.00
2019-03-16T19:50:56.082Z,6.50
2019-03-16T19:53:26.510Z,6.40
2019-03-16T19:55:56.895Z,6.63
2019-03-16T19:58:30.272Z,7.00
2019-03-16T20:01:00.866Z,7.77
2019-03-16T20:03:39.249Z,8.97
2019-03-16T20:06:09.859Z,7.17
2019-03-16T20:08:40.212Z,6.67
2019-03-16T20:11:29.107Z,6.37
2019-03-16T20:13:59.559Z,6.50
2019-03-16T20:16:29.998Z,7.63
2019-03-16T20:19:00.685Z,8.63
2019-03-16T20:21:33.831Z,7.23
2019-03-16T20:24:04.362Z,6.77
2019-03-16T20:26:34.821Z,5.97
2019-03-16T20:29:08.039Z,6.73
2019-03-16T20:31:47.254Z,6.80
2019-03-16T20:34:16.383Z,7.67
2019-03-16T20:37:07.368Z,7.17
2019-03-16T20:39:37.857Z,6.47
2019-03-16T20:42:08.762Z,7.63
2019-03-16T20:44:43.756Z,7.57
2019-03-16T20:47:16.634Z,6.83
2019-03-16T20:49:48.929Z,7.53
2019-03-16T20:52:20.065Z,8.10
2019-03-16T20:55:53.162Z,8.47
2019-03-16T20:57:47.112Z,7.60
2019-03-16T21:00:18.039Z,8.13
2019-03-16T21:02:48.800Z,7.90
2019-03-16T21:05:19.800Z,6.93
2019-03-16T21:07:53.534Z,7.50
2019-03-16T21:10:24.593Z,8.40
2019-03-16T21:12:55.131Z,8.43
2019-03-16T21:15:27.377Z,8.73
2019-03-16T21:17:58.419Z,8.97
2019-03-16T21:20:32.445Z,9.50
2019-03-16T21:23:03.481Z,8.33
2019-03-16T21:25:34.595Z,8.80
2019-03-16T21:28:09.203Z,8.10
2019-03-16T21:30:41.201Z,8.00
2019-03-16T21:33:11.706Z,7.87
2019-03-16T21:35:44.248Z,8.67
2019-03-16T21:38:17.287Z,9.10
2019-03-16T21:40:47.700Z,8.93
2019-03-16T21:43:42.809Z,7.03
2019-03-16T21:46:18.207Z,7.47
2019-03-16T21:48:58.056Z,7.03
2019-03-16T21:51:29.787Z,10.33
2019-03-16T21:54:01.022Z,26.87
2019-03-16T21:56:35.042Z,11.47
2019-03-16T21:59:07.348Z,7.87
2019-03-16T22:01:45.339Z,7.90
2019-03-16T22:04:17.924Z,8.10
2019-03-16T22:06:54.961Z,8.00
2019-03-16T22:09:26.821Z,8.13
2019-03-16T22:12:00.374Z,9.57
2019-03-16T22:14:49.013Z,8.80
2019-03-16T22:17:22.547Z,8.73
2019-03-16T22:19:56.623Z,8.20
2019-03-16T22:24:15.743Z,8.17
2019-03-16T22:25:29.173Z,8.33
2019-03-16T22:28:00.333Z,7.50
2019-03-16T22:30:31.647Z,7.13
2019-03-16T22:33:02.854Z,6.60
2019-03-16T22:35:48.033Z,6.90
2019-03-16T22:38:18.670Z,7.47
2019-03-16T22:40:49.924Z,6.60
2019-03-16T22:43:20.425Z,5.97
2019-03-16T22:45:50.815Z,6.57
2019-03-16T22:48:21.468Z,5.73
2019-03-16T22:50:51.985Z,5.90
2019-03-16T22:53:22.654Z,5.70
2019-03-16T22:55:53.468Z,5.80
2019-03-16T22:58:24.167Z,5.77
2019-03-16T23:00:55.081Z,5.63
2019-03-16T23:03:25.687Z,5.77
2019-03-16T23:05:56.438Z,5.47
2019-03-16T23:08:28.626Z,5.57
2019-03-16T23:10:58.978Z,5.20
2019-03-16T23:13:29.821Z,5.47
2019-03-16T23:16:00.427Z,5.40
2019-03-16T23:18:31.910Z,5.13
2019-03-16T23:21:04.941Z,5.57
2019-03-16T23:23:42.804Z,5.00
2019-03-16T23:26:13.438Z,5.23
2019-03-16T23:28:44.024Z,5.43
2019-03-16T23:31:14.486Z,5.10
2019-03-16T23:33:44.911Z,4.73
2019-03-16T23:36:17.556Z,4.97
2019-03-16T23:38:48.272Z,5.07
2019-03-16T23:41:19.581Z,5.03
2019-03-16T23:43:54.819Z,5.13
2019-03-16T23:46:25.172Z,5.00
2019-03-16T23:48:55.861Z,4.73
2019-03-16T23:51:27.780Z,5.00
2019-03-16T23:53:58.137Z,5.00
2019-03-16T23:56:28.501Z,4.70
2019-03-16T23:58:58.951Z,5.33
